Time;durP1;ratioP1;P1;durP2;ratioP2;P2;SDS_P1;SDS_P2;PMS_P1;PMS_P2;Temp;Humidity;BMP_temperature;BMP_pressure;BME280_temperature;BME280_humidity;BME280_pressure;Samples;Min_cycle;Max_cycle;Signal;HPM_P1;HPM_P2
2022/05/23 00:01:21;;;;;;;7.47;4.40;;;17.70;99.90;;;;;;5065474;28;20553;-77
2022/05/23 00:03:48;;;;;;;9.73;4.27;;;17.60;99.90;;;;;;5053796;28;20195;-76
2022/05/23 00:06:19;;;;;;;7.93;5.10;;;17.50;99.90;;;;;;5051363;28;20204;-76
2022/05/23 00:08:47;;;;;;;5.40;4.43;;;17.60;99.90;;;;;;5051790;28;20200;-77
2022/05/23 00:11:15;;;;;;;7.43;4.53;;;17.60;99.90;;;;;;5071675;28;20330;-77
2022/05/23 00:13:42;;;;;;;6.57;4.47;;;17.50;99.90;;;;;;5072259;28;20203;-77
2022/05/23 00:16:16;;;;;;;7.93;4.80;;;17.50;99.90;;;;;;5072084;28;20199;-77
2022/05/23 00:18:44;;;;;;;4.70;4.10;;;17.50;99.90;;;;;;5072026;28;20756;-77
2022/05/23 00:21:11;;;;;;;9.03;5.20;;;17.50;99.90;;;;;;5066825;28;20706;-77
2022/05/23 00:23:38;;;;;;;7.78;4.88;;;17.50;99.90;;;;;;5063435;28;20223;-77
2022/05/23 00:26:05;;;;;;;6.72;5.00;;;17.60;99.90;;;;;;5062124;28;20226;-77
2022/05/23 00:28:32;;;;;;;6.07;5.07;;;17.50;99.90;;;;;;5063665;28;20227;-77
2022/05/23 00:30:59;;;;;;;8.20;5.22;;;17.50;99.90;;;;;;5055869;28;20258;-77
2022/05/23 00:36:12;;;;;;;5.97;5.33;;;17.40;99.90;;;;;;5061943;28;20202;-77
2022/05/23 00:38:39;;;;;;;7.10;5.03;;;17.50;99.90;;;;;;5063184;28;20202;-77
2022/05/23 00:44:01;;;;;;;7.10;5.18;;;17.30;99.90;;;;;;5069427;28;20210;-77
2022/05/23 00:46:28;;;;;;;8.43;5.47;;;17.20;99.90;;;;;;5060449;28;20318;-77
2022/05/23 00:48:59;;;;;;;7.73;5.40;;;17.20;99.90;;;;;;5059780;28;20204;-77
2022/05/23 00:51:27;;;;;;;7.10;5.60;;;17.10;99.90;;;;;;5060478;28;20306;-77
2022/05/23 00:53:57;;;;;;;7.13;5.63;;;17.00;99.90;;;;;;5063084;28;20191;-77
2022/05/23 00:56:31;;;;;;;8.00;5.43;;;17.10;99.90;;;;;;5056405;28;20283;-77
2022/05/23 00:59:03;;;;;;;8.90;5.73;;;16.90;99.90;;;;;;5063165;28;20190;-77
2022/05/23 01:01:33;;;;;;;8.50;5.87;;;16.90;99.90;;;;;;5061186;28;20226;-77
2022/05/23 01:04:02;;;;;;;7.50;5.30;;;16.80;99.90;;;;;;5065338;28;20249;-77
2022/05/23 01:06:29;;;;;;;9.07;6.10;;;16.60;99.90;;;;;;5060965;28;20282;-77
2022/05/23 01:08:57;;;;;;;7.17;6.33;;;16.60;99.90;;;;;;5060293;28;20290;-77
2022/05/23 01:11:24;;;;;;;14.10;7.37;;;16.60;99.90;;;;;;5059060;28;20746;-76
2022/05/23 01:13:53;;;;;;;9.10;6.47;;;16.50;99.90;;;;;;5052254;28;20242;-77
2022/05/23 01:16:21;;;;;;;9.20;6.63;;;16.50;99.90;;;;;;5051882;28;20615;-76
2022/05/23 01:18:48;;;;;;;9.17;6.60;;;16.60;99.90;;;;;;5059220;28;20200;-77
2022/05/23 01:21:29;;;;;;;7.70;6.27;;;16.50;99.90;;;;;;5057488;28;20298;-76
2022/05/23 01:24:01;;;;;;;11.10;6.80;;;16.60;99.90;;;;;;5064080;28;20290;-76
2022/05/23 01:26:33;;;;;;;10.40;6.70;;;16.50;99.90;;;;;;5062571;28;20677;-77
2022/05/23 01:29:00;;;;;;;9.37;7.20;;;16.60;99.90;;;;;;5059010;28;20203;-76
2022/05/23 01:31:27;;;;;;;10.07;8.30;;;16.40;99.90;;;;;;5063836;28;20291;-77
2022/05/23 01:33:54;;;;;;;11.50;8.97;;;16.50;99.90;;;;;;5053409;28;20983;-76
2022/05/23 01:36:21;;;;;;;11.37;10.17;;;16.40;99.90;;;;;;5066028;28;20701;-77
2022/05/23 01:38:47;;;;;;;12.83;10.67;;;16.50;99.90;;;;;;5063556;28;20203;-76
2022/05/23 01:41:14;;;;;;;13.23;10.93;;;16.40;99.90;;;;;;5067696;28;20203;-76
2022/05/23 01:43:43;;;;;;;16.13;11.40;;;16.40;99.90;;;;;;5058171;28;20671;-77
2022/05/23 01:46:10;;;;;;;14.27;11.30;;;16.40;99.90;;;;;;5070664;28;20259;-76
2022/05/23 01:48:36;;;;;;;14.43;11.07;;;16.30;99.90;;;;;;5061300;28;20199;-77
2022/05/23 01:51:03;;;;;;;17.10;11.47;;;16.30;99.90;;;;;;5073736;28;20309;-77
2022/05/23 01:53:30;;;;;;;17.20;12.43;;;16.20;99.90;;;;;;5074787;28;20226;-76
2022/05/23 01:56:02;;;;;;;15.63;12.20;;;16.20;99.90;;;;;;5074359;28;20346;-77
2022/05/23 02:01:15;;;;;;;14.87;13.43;;;16.20;99.90;;;;;;5063140;28;20250;-76
2022/05/23 02:03:42;;;;;;;19.80;13.40;;;16.20;99.90;;;;;;5067320;28;20366;-77
2022/05/23 02:06:09;;;;;;;15.63;13.47;;;16.10;99.90;;;;;;5074071;28;20646;-77
2022/05/23 02:08:37;;;;;;;18.07;13.87;;;16.10;99.90;;;;;;5074380;28;20234;-77
2022/05/23 02:11:05;;;;;;;19.97;14.80;;;16.10;99.90;;;;;;5054060;28;20228;-76
2022/05/23 02:13:34;;;;;;;18.17;14.93;;;16.10;99.90;;;;;;5054100;28;20200;-76
2022/05/23 02:16:01;;;;;;;16.70;14.50;;;16.10;99.90;;;;;;5036215;28;20207;-76
2022/05/23 02:18:30;;;;;;;19.63;14.80;;;16.10;99.90;;;;;;5053522;28;20227;-76
2022/05/23 02:20:57;;;;;;;15.67;13.57;;;16.00;99.90;;;;;;5055135;28;20625;-76
2022/05/23 02:23:24;;;;;;;17.77;14.40;;;16.00;99.90;;;;;;5070266;28;20200;-76
2022/05/23 02:25:51;;;;;;;15.97;14.13;;;15.90;99.90;;;;;;5054012;28;20200;-76
2022/05/23 02:28:19;;;;;;;18.63;14.37;;;15.90;99.90;;;;;;5053649;28;20630;-76
2022/05/23 02:30:47;;;;;;;19.00;14.70;;;15.90;99.90;;;;;;5054558;28;20224;-77
2022/05/23 02:33:14;;;;;;;16.97;14.60;;;15.90;99.90;;;;;;5061025;28;20243;-76
2022/05/23 02:35:43;;;;;;;20.13;14.83;;;15.90;99.90;;;;;;5053699;28;20238;-76
2022/05/23 02:38:10;;;;;;;20.53;15.67;;;15.90;99.90;;;;;;5053700;28;20228;-76
2022/05/23 02:40:37;;;;;;;20.17;17.27;;;15.90;99.90;;;;;;5053987;28;20199;-77
2022/05/23 02:43:04;;;;;;;19.63;17.20;;;15.90;99.90;;;;;;5069249;28;20734;-76
2022/05/23 02:45:31;;;;;;;22.27;18.33;;;15.90;99.90;;;;;;5072321;28;20314;-76
2022/05/23 02:47:58;;;;;;;21.30;19.00;;;15.80;99.90;;;;;;5059950;28;20959;-77
2022/05/23 02:50:26;;;;;;;22.83;19.70;;;15.90;99.90;;;;;;5059272;28;20231;-77
2022/05/23 02:52:55;;;;;;;24.97;22.27;;;15.90;99.90;;;;;;5073567;28;20274;-76
2022/05/23 02:55:22;;;;;;;25.87;22.53;;;15.80;99.90;;;;;;5072603;28;20203;-77
2022/05/23 02:57:49;;;;;;;26.60;23.67;;;15.70;99.90;;;;;;5069061;28;20232;-76
2022/05/23 03:00:17;;;;;;;27.00;23.00;;;15.60;99.90;;;;;;5053275;28;20235;-77
2022/05/23 03:05:28;;;;;;;26.43;23.50;;;15.60;99.90;;;;;;5054653;28;20198;-76
2022/05/23 03:07:56;;;;;;;29.10;23.80;;;15.50;99.90;;;;;;5052875;28;20331;-77
2022/05/23 03:10:23;;;;;;;27.27;24.37;;;15.40;99.90;;;;;;5066951;28;20691;-76
2022/05/23 03:12:50;;;;;;;27.60;24.50;;;15.50;99.90;;;;;;5072597;28;20305;-77
2022/05/23 03:15:17;;;;;;;28.13;23.57;;;15.40;99.90;;;;;;5072405;28;20230;-76
2022/05/23 03:17:44;;;;;;;25.97;23.23;;;15.30;99.90;;;;;;5054917;28;20247;-77
2022/05/23 03:20:12;;;;;;;27.63;24.13;;;15.30;99.90;;;;;;5054094;28;20238;-76
2022/05/23 03:28:10;;;;;;;26.23;23.43;;;15.30;99.90;;;;;;5058219;28;20217;-77
2022/05/23 03:30:37;;;;;;;27.67;24.67;;;15.30;99.90;;;;;;5063629;28;20241;-76
2022/05/23 03:33:04;;;;;;;31.40;24.27;;;15.20;99.90;;;;;;5071802;28;20310;-76
2022/05/23 03:35:32;;;;;;;26.97;24.27;;;15.10;99.90;;;;;;5060923;28;20707;-76
2022/05/23 03:38:00;;;;;;;25.87;23.07;;;15.10;99.90;;;;;;5071004;28;20397;-76
2022/05/23 03:40:28;;;;;;;27.03;23.17;;;15.20;99.90;;;;;;5072532;28;20246;-76
2022/05/23 03:42:55;;;;;;;25.53;23.00;;;15.20;99.90;;;;;;5067016;28;20220;-76
2022/05/23 03:45:22;;;;;;;24.23;21.73;;;15.10;99.90;;;;;;5059205;28;20239;-76
2022/05/23 03:47:51;;;;;;;23.50;20.87;;;15.10;99.90;;;;;;5068508;28;20234;-77
2022/05/23 03:50:18;;;;;;;23.07;20.67;;;15.10;99.90;;;;;;5055737;28;20223;-76
2022/05/23 03:52:45;;;;;;;23.57;21.20;;;15.10;99.90;;;;;;5065112;28;20698;-76
2022/05/23 03:55:12;;;;;;;24.87;21.40;;;15.10;99.90;;;;;;5062948;28;20230;-77
2022/05/23 03:57:40;;;;;;;22.43;20.03;;;15.10;99.90;;;;;;5065971;28;20592;-77
2022/05/23 04:00:12;;;;;;;21.67;19.53;;;15.10;99.90;;;;;;5054501;28;20286;-77
2022/05/23 04:02:39;;;;;;;22.30;19.90;;;15.10;99.90;;;;;;5066823;28;20196;-77
2022/05/23 04:05:07;;;;;;;22.60;20.30;;;15.10;99.90;;;;;;5061016;28;20226;-76
2022/05/23 04:07:36;;;;;;;21.57;19.33;;;15.10;99.90;;;;;;5059739;28;20203;-77
2022/05/23 04:10:04;;;;;;;20.30;18.30;;;15.00;99.90;;;;;;5057035;28;20226;-77
2022/05/23 04:12:31;;;;;;;18.50;16.67;;;15.00;99.90;;;;;;5069083;28;20311;-76
2022/05/23 04:14:59;;;;;;;16.90;15.20;;;14.90;99.90;;;;;;5068980;28;20282;-76
2022/05/23 04:17:27;;;;;;;16.27;13.90;;;14.80;99.90;;;;;;5059833;28;20238;-76
2022/05/23 04:19:54;;;;;;;16.00;14.50;;;14.80;99.90;;;;;;5066565;28;20227;-76
2022/05/23 04:22:21;;;;;;;16.37;14.67;;;14.80;99.90;;;;;;5069536;28;20203;-76
2022/05/23 04:24:47;;;;;;;14.73;13.43;;;14.90;99.90;;;;;;5059269;28;20211;-76
2022/05/23 04:27:14;;;;;;;13.20;11.90;;;14.70;99.90;;;;;;5060300;28;20235;-77
2022/05/23 04:29:41;;;;;;;11.40;10.23;;;14.70;99.90;;;;;;5059221;28;20223;-76
2022/05/23 04:37:35;;;;;;;8.53;7.73;;;14.40;99.90;;;;;;5067393;28;20260;-76
2022/05/23 04:40:02;;;;;;;8.57;7.53;;;14.40;99.90;;;;;;5063394;28;20234;-77
2022/05/23 04:42:29;;;;;;;8.53;7.73;;;14.40;99.90;;;;;;5061530;28;20238;-76
2022/05/23 04:44:55;;;;;;;8.43;7.53;;;14.40;99.90;;;;;;5059234;28;20281;-76
2022/05/23 04:50:09;;;;;;;8.60;7.60;;;14.40;99.90;;;;;;5071565;28;20198;-76
2022/05/23 04:52:36;;;;;;;12.00;7.50;;;14.30;99.90;;;;;;5054214;28;20779;-76
2022/05/23 04:55:03;;;;;;;8.90;7.43;;;14.30;99.90;;;;;;5066793;28;20219;-76
2022/05/23 04:57:31;;;;;;;9.23;8.30;;;14.30;99.90;;;;;;5055108;28;20231;-76
2022/05/23 04:59:58;;;;;;;9.90;8.83;;;14.20;99.90;;;;;;5068890;28;20207;-76
2022/05/23 05:02:26;;;;;;;11.73;8.60;;;14.20;99.90;;;;;;5063279;28;20246;-76
2022/05/23 05:04:53;;;;;;;11.53;9.90;;;14.20;99.90;;;;;;5051401;28;20204;-77
2022/05/23 05:07:20;;;;;;;11.67;10.47;;;14.20;99.90;;;;;;5056997;28;20290;-77
2022/05/23 05:09:47;;;;;;;13.07;10.77;;;14.10;99.90;;;;;;5061837;28;20746;-78
2022/05/23 05:12:14;;;;;;;16.20;11.90;;;14.10;99.90;;;;;;5069395;28;20299;-77
2022/05/23 05:14:41;;;;;;;16.87;12.80;;;14.10;99.90;;;;;;5075729;28;20237;-78
2022/05/23 05:17:11;;;;;;;15.20;12.87;;;14.00;99.90;;;;;;5070211;28;20282;-78
2022/05/23 05:19:40;;;;;;;15.43;12.60;;;14.10;99.90;;;;;;5071682;28;20286;-77
2022/05/23 05:22:07;;;;;;;20.83;13.30;;;14.00;99.90;;;;;;5059071;28;20219;-77
2022/05/23 05:24:34;;;;;;;17.57;13.33;;;14.10;99.90;;;;;;5073413;28;20234;-77
2022/05/23 05:27:01;;;;;;;16.33;13.23;;;14.00;99.90;;;;;;5061635;28;20231;-77
2022/05/23 05:29:28;;;;;;;17.30;14.97;;;14.00;99.90;;;;;;5058012;28;20676;-77
2022/05/23 05:31:59;;;;;;;14.97;12.80;;;14.00;99.90;;;;;;5056054;28;20265;-77
2022/05/23 05:34:32;;;;;;;19.67;13.73;;;14.00;99.90;;;;;;5066609;28;20263;-76
2022/05/23 05:37:03;;;;;;;16.17;13.70;;;14.00;99.90;;;;;;5065368;28;20713;-77
2022/05/23 05:39:32;;;;;;;19.30;12.57;;;14.00;99.90;;;;;;5071499;28;20370;-77
2022/05/23 05:42:03;;;;;;;14.20;12.50;;;13.90;99.90;;;;;;5060216;28;20202;-77
2022/05/23 05:44:34;;;;;;;18.97;13.07;;;13.90;99.90;;;;;;5055916;28;20392;-77
2022/05/23 05:47:08;;;;;;;16.13;12.80;;;13.90;99.90;;;;;;5067272;28;20205;-78
2022/05/23 05:49:38;;;;;;;18.83;13.50;;;13.90;99.90;;;;;;5065687;28;20194;-78
2022/05/23 05:52:10;;;;;;;18.37;12.03;;;13.90;99.90;;;;;;5069693;28;20309;-78
2022/05/23 05:54:39;;;;;;;17.10;12.70;;;13.90;99.90;;;;;;5075179;28;20257;-78
2022/05/23 05:57:08;;;;;;;18.93;13.10;;;14.00;99.90;;;;;;5072463;28;20197;-78
2022/05/23 05:59:35;;;;;;;18.83;13.63;;;13.90;99.90;;;;;;5064821;28;20282;-78
2022/05/23 06:02:03;;;;;;;17.83;13.53;;;13.80;99.90;;;;;;5062609;28;20239;-78
2022/05/23 06:04:29;;;;;;;19.03;13.93;;;13.80;99.90;;;;;;5054241;28;20299;-78
2022/05/23 06:12:26;;;;;;;19.87;13.20;;;13.80;99.90;;;;;;5073136;28;20265;-78
2022/05/23 06:14:53;;;;;;;18.70;13.70;;;13.80;99.90;;;;;;5074279;28;20238;-78
2022/05/23 06:17:20;;;;;;;17.13;12.23;;;13.80;99.90;;;;;;5074704;28;20713;-78
2022/05/23 06:19:48;;;;;;;18.40;13.27;;;13.70;99.90;;;;;;5060925;28;20291;-77
2022/05/23 06:22:16;;;;;;;18.37;11.97;;;13.80;99.90;;;;;;5053664;28;20763;-77
2022/05/23 06:24:44;;;;;;;16.83;12.23;;;13.80;99.90;;;;;;5058004;28;20291;-77
2022/05/23 06:27:12;;;;;;;17.27;12.40;;;13.80;99.90;;;;;;5061799;28;20695;-77
2022/05/23 06:29:39;;;;;;;15.67;12.50;;;13.80;99.90;;;;;;5063618;28;20622;-77
2022/05/23 06:32:07;;;;;;;18.17;12.07;;;13.80;99.90;;;;;;5054395;28;20657;-77
2022/05/23 06:34:35;;;;;;;13.60;11.30;;;13.60;99.90;;;;;;5055988;28;20246;-77
2022/05/23 06:37:01;;;;;;;13.27;10.20;;;13.40;99.90;;;;;;5074469;28;20613;-78
2022/05/23 06:39:28;;;;;;;12.00;10.60;;;13.40;99.90;;;;;;5073944;28;20210;-77
2022/05/23 06:41:57;;;;;;;12.03;9.87;;;13.40;99.90;;;;;;5074429;28;20282;-77
2022/05/23 06:44:24;;;;;;;10.80;9.33;;;13.40;99.90;;;;;;5073984;28;20229;-77
2022/05/23 06:46:51;;;;;;;11.30;9.13;;;13.40;99.90;;;;;;5063150;28;20291;-78
2022/05/23 06:49:18;;;;;;;11.03;9.67;;;13.40;99.90;;;;;;5066606;28;20215;-77
2022/05/23 06:51:49;;;;;;;10.67;9.57;;;13.50;99.90;;;;;;5073907;28;20633;-77
2022/05/23 06:54:17;;;;;;;12.17;9.27;;;13.60;99.90;;;;;;5070087;28;20226;-77
2022/05/23 06:56:44;;;;;;;12.10;9.67;;;13.70;99.90;;;;;;5073287;28;20210;-78
2022/05/23 06:59:13;;;;;;;11.70;9.20;;;13.80;99.90;;;;;;5073979;28;20225;-77
2022/05/23 07:01:40;;;;;;;10.30;9.23;;;13.80;99.90;;;;;;5073089;28;20210;-78
2022/05/23 07:04:07;;;;;;;12.57;10.90;;;13.70;99.90;;;;;;5053629;28;20694;-77
2022/05/23 07:12:23;;;;;;;13.60;10.60;;;13.50;99.90;;;;;;5073693;28;20694;-77
2022/05/23 07:14:53;;;;;;;16.37;10.53;;;13.50;99.90;;;;;;5073034;28;20199;-77
2022/05/23 07:17:21;;;;;;;17.07;9.77;;;13.50;99.90;;;;;;5071320;28;20283;-77
2022/05/23 07:19:48;;;;;;;9.13;8.07;;;13.30;99.90;;;;;;5053427;28;20199;-78
2022/05/23 07:22:17;;;;;;;9.77;6.43;;;13.20;99.90;;;;;;5056296;28;20234;-77
2022/05/23 07:24:44;;;;;;;5.17;4.60;;;13.20;99.90;;;;;;5072808;28;20234;-77
2022/05/23 07:27:12;;;;;;;4.83;3.40;;;13.10;99.90;;;;;;5073058;28;20199;-77
2022/05/23 07:29:39;;;;;;;8.80;3.60;;;13.00;99.90;;;;;;5073578;28;20220;-77
2022/05/23 07:32:08;;;;;;;4.20;2.83;;;13.00;99.90;;;;;;5072735;28;20731;-77
2022/05/23 07:34:35;;;;;;;6.03;3.17;;;13.00;99.90;;;;;;5072228;28;20545;-76
2022/05/23 07:37:02;;;;;;;3.77;2.87;;;13.00;99.90;;;;;;5059993;28;20286;-77
2022/05/23 07:39:29;;;;;;;4.67;2.73;;;12.90;99.90;;;;;;5058098;28;20231;-77
2022/05/23 07:41:56;;;;;;;5.53;3.00;;;13.00;99.90;;;;;;5073329;28;20230;-77
2022/05/23 07:44:23;;;;;;;12.00;2.97;;;12.90;99.90;;;;;;5072822;28;20277;-77
2022/05/23 07:46:50;;;;;;;5.03;2.27;;;12.90;99.90;;;;;;5072929;28;20294;-77
2022/05/23 07:49:18;;;;;;;3.30;2.13;;;13.00;99.90;;;;;;5071370;28;20199;-77
2022/05/23 07:51:45;;;;;;;2.80;2.10;;;13.10;99.90;;;;;;5052513;28;20246;-77
2022/05/23 08:02:25;;;;;;;3.13;1.60;;;13.20;99.90;;;;;;5052679;28;20735;-77
2022/05/23 08:04:54;;;;;;;2.50;1.90;;;13.10;99.90;;;;;;5062830;28;20285;-77
2022/05/23 08:07:21;;;;;;;3.07;2.10;;;13.10;99.90;;;;;;5072234;28;20285;-77
2022/05/23 08:09:48;;;;;;;2.30;2.10;;;13.10;99.90;;;;;;5072382;28;20250;-77
2022/05/23 08:12:17;;;;;;;3.13;2.37;;;13.10;99.90;;;;;;5072215;28;20230;-77
2022/05/23 08:14:43;;;;;;;3.23;2.57;;;13.20;99.90;;;;;;5072313;28;20295;-77
2022/05/23 08:17:10;;;;;;;2.90;2.53;;;13.20;99.90;;;;;;5058909;28;20206;-77
2022/05/23 08:19:37;;;;;;;3.27;2.57;;;13.10;99.90;;;;;;5052106;28;20238;-77
2022/05/23 08:22:07;;;;;;;3.70;2.60;;;13.10;99.90;;;;;;5072036;28;20238;-77
2022/05/23 08:24:34;;;;;;;8.03;2.87;;;13.10;99.90;;;;;;5058222;28;20224;-77
2022/05/23 08:27:01;;;;;;;10.93;3.10;;;13.10;99.90;;;;;;5064879;28;20520;-77
2022/05/23 08:29:29;;;;;;;10.77;3.50;;;13.20;99.90;;;;;;5072125;28;20286;-76
2022/05/23 08:31:56;;;;;;;6.17;3.10;;;13.20;99.90;;;;;;5054509;28;20195;-77
2022/05/23 08:34:23;;;;;;;9.17;4.10;;;13.30;99.90;;;;;;5071548;28;20313;-78
2022/05/23 08:36:51;;;;;;;5.63;3.20;;;13.20;99.90;;;;;;5071944;28;20198;-78
2022/05/23 08:39:20;;;;;;;6.97;3.83;;;13.20;99.90;;;;;;5071407;28;20195;-77
2022/05/23 08:41:50;;;;;;;6.20;4.03;;;13.30;99.90;;;;;;5071278;28;20286;-77
2022/05/23 08:44:23;;;;;;;4.50;3.97;;;13.30;99.90;;;;;;5071157;28;20230;-77
2022/05/23 08:46:58;;;;;;;10.10;4.63;;;13.30;99.90;;;;;;5071772;28;20203;-77
2022/05/23 08:49:41;;;;;;;7.10;4.30;;;13.30;99.90;;;;;;5069620;28;20285;-78
2022/05/23 08:52:13;;;;;;;13.00;5.40;;;13.50;99.90;;;;;;5052390;28;20631;-77
2022/05/23 08:54:51;;;;;;;9.20;4.83;;;13.60;99.90;;;;;;5051721;28;20259;-78
2022/05/23 08:57:28;;;;;;;4.87;4.07;;;13.50;99.90;;;;;;5052937;28;20282;-77
2022/05/23 08:59:58;;;;;;;7.17;4.10;;;13.50;99.90;;;;;;5071750;28;20803;-77
2022/05/23 09:02:35;;;;;;;6.90;4.40;;;13.40;99.90;;;;;;5072198;28;20226;-78
2022/05/23 09:05:07;;;;;;;4.77;3.93;;;13.50;99.90;;;;;;5071598;28;20209;-77
2022/05/23 09:07:39;;;;;;;7.50;3.87;;;13.50;99.90;;;;;;5071480;28;20237;-77
2022/05/23 09:10:15;;;;;;;7.37;3.77;;;13.60;99.90;;;;;;5041956;28;20303;-77
2022/05/23 09:12:42;;;;;;;9.17;4.10;;;13.60;99.90;;;;;;5051612;28;20682;-77
2022/05/23 09:15:09;;;;;;;8.10;4.03;;;13.60;99.90;;;;;;5051999;28;20291;-77
2022/05/23 09:17:44;;;;;;;9.07;4.10;;;13.50;99.90;;;;;;5051092;28;20286;-77
2022/05/23 09:20:14;;;;;;;9.30;4.57;;;13.70;99.90;;;;;;5051535;28;20239;-77
2022/05/23 09:22:47;;;;;;;6.80;4.50;;;13.70;99.90;;;;;;5051253;28;20239;-77
2022/05/23 09:25:19;;;;;;;5.07;4.20;;;13.80;99.90;;;;;;5051684;28;20211;-77
2022/05/23 09:27:51;;;;;;;4.83;4.00;;;13.70;99.90;;;;;;5051024;28;20227;-77
2022/05/23 09:30:22;;;;;;;6.63;3.70;;;13.80;99.90;;;;;;5057221;28;20282;-77
2022/05/23 09:32:54;;;;;;;6.37;3.47;;;13.80;99.90;;;;;;5071228;28;20202;-77
2022/05/23 09:35:24;;;;;;;4.80;2.97;;;13.80;99.90;;;;;;5071629;28;20600;-77
2022/05/23 09:38:07;;;;;;;4.70;2.67;;;13.70;99.90;;;;;;5071280;28;20230;-77
2022/05/23 09:40:38;;;;;;;4.33;2.60;;;13.80;99.90;;;;;;5071387;28;20649;-77
2022/05/23 09:49:10;;;;;;;3.50;2.43;;;13.80;99.90;;;;;;5070687;28;20214;-77
2022/05/23 09:51:55;;;;;;;6.23;2.93;;;13.90;99.90;;;;;;5071296;28;20211;-77
2022/05/23 09:54:27;;;;;;;4.97;2.80;;;14.30;99.90;;;;;;5051482;28;20224;-77
2022/05/23 09:56:57;;;;;;;5.77;3.10;;;14.40;99.90;;;;;;5051346;28;20227;-77
2022/05/23 09:59:29;;;;;;;3.00;2.23;;;14.30;99.90;;;;;;5054960;28;20292;-77
2022/05/23 10:01:56;;;;;;;3.83;2.43;;;14.30;99.90;;;;;;5056081;28;20235;-77
2022/05/23 10:04:27;;;;;;;7.03;2.57;;;14.20;99.90;;;;;;5055487;28;20232;-77
2022/05/23 10:06:54;;;;;;;5.10;2.30;;;14.20;99.90;;;;;;5054876;28;20231;-76
2022/05/23 10:09:39;;;;;;;3.37;2.37;;;14.20;99.90;;;;;;5055166;28;20254;-77
2022/05/23 10:12:10;;;;;;;7.00;2.70;;;14.20;99.90;;;;;;5054586;28;20287;-77
2022/05/23 10:14:49;;;;;;;6.00;2.90;;;14.30;99.90;;;;;;5061771;28;20247;-77
2022/05/23 10:17:36;;;;;;;6.80;3.00;;;14.30;99.90;;;;;;5074508;28;20250;-77
2022/05/23 10:20:26;;;;;;;9.27;3.63;;;14.40;99.90;;;;;;5073856;28;20273;-77
2022/05/23 10:22:55;;;;;;;8.47;3.80;;;14.90;99.90;;;;;;5067733;28;20725;-77
2022/05/23 10:25:23;;;;;;;5.40;4.20;;;15.40;99.90;;;;;;5074539;28;20681;-77
2022/05/23 10:27:57;;;;;;;7.37;5.03;;;16.10;99.90;;;;;;5071072;28;20286;-77
2022/05/23 10:30:28;;;;;;;7.37;4.70;;;17.20;99.90;;;;;;5065086;28;20202;-77
2022/05/23 10:33:01;;;;;;;4.35;3.95;;;20.10;99.90;;;;;;5073778;28;20221;-77
2022/05/23 10:35:32;;;;;;;4.57;3.40;;;22.00;99.90;;;;;;5053977;28;20192;-78
2022/05/23 10:42:07;;;;;;;5.13;3.78;;;21.90;99.90;;;;;;5054341;28;20290;-77
2022/05/23 10:43:46;;;;;;;6.32;3.85;;;19.50;99.90;;;;;;5054424;28;20191;-77
2022/05/23 10:46:14;;;;;;;6.90;3.67;;;18.60;99.90;;;;;;5069297;28;20702;-78
2022/05/23 10:48:46;;;;;;;8.25;4.03;;;18.10;99.90;;;;;;5074268;28;20286;-77
2022/05/23 10:51:25;;;;;;;5.43;4.65;;;17.80;99.90;;;;;;5073899;28;20623;-77
2022/05/23 10:54:16;;;;;;;7.43;4.47;;;17.40;99.90;;;;;;5074097;28;20644;-77
2022/05/23 10:56:58;;;;;;;7.20;4.65;;;16.90;99.90;;;;;;5074124;28;20238;-77
2022/05/23 10:59:35;;;;;;;6.03;4.50;;;16.60;99.90;;;;;;5073408;28;20541;-77
2022/05/23 11:02:14;;;;;;;9.10;4.38;;;16.60;99.90;;;;;;5072935;28;20268;-77
2022/05/23 11:04:51;;;;;;;8.30;4.80;;;16.90;99.90;;;;;;5073639;28;20227;-76
2022/05/23 11:07:35;;;;;;;4.55;3.28;;;17.90;99.90;;;;;;5057814;28;20242;-78
2022/05/23 11:10:14;;;;;;;5.38;3.65;;;18.90;99.90;;;;;;5064608;28;20261;-77
2022/05/23 11:12:51;;;;;;;4.75;3.00;;;19.10;99.90;;;;;;5073513;28;20207;-77
2022/05/23 11:15:40;;;;;;;4.10;3.40;;;19.60;99.90;;;;;;5072858;28;20222;-77
2022/05/23 11:18:15;;;;;;;4.57;3.25;;;20.50;99.90;;;;;;5073883;28;20304;-77
2022/05/23 11:20:42;;;;;;;4.60;3.20;;;22.40;99.90;;;;;;5073531;28;20241;-77
2022/05/23 11:23:16;;;;;;;5.35;2.90;;;23.00;99.90;;;;;;5073372;28;20230;-77
2022/05/23 11:25:46;;;;;;;5.38;2.70;;;23.80;99.90;;;;;;5073390;28;20551;-77
2022/05/23 11:33:59;;;;;;;5.45;2.35;;;21.40;99.90;;;;;;5053162;28;20226;-76
2022/05/23 11:36:44;;;;;;;6.00;2.63;;;20.70;99.90;;;;;;5052844;28;20227;-77
2022/05/23 11:39:46;;;;;;;5.38;1.98;;;20.60;99.90;;;;;;5053270;28;20207;-77
2022/05/23 11:42:15;;;;;;;6.10;2.40;;;20.00;99.90;;;;;;5053175;28;20290;-77
2022/05/23 11:48:35;;;;;;;5.28;1.60;;;21.10;99.90;;;;;;5052923;28;20453;-77
2022/05/23 11:51:10;;;;;;;4.40;1.58;;;22.30;99.90;;;;;;5059980;28;20593;-77
2022/05/23 11:53:40;;;;;;;6.15;2.17;;;23.90;99.90;;;;;;5071383;28;20281;-77
2022/05/23 11:56:09;;;;;;;5.22;2.20;;;24.40;99.90;;;;;;5052761;28;20207;-77
2022/05/23 11:58:43;;;;;;;6.28;2.10;;;21.90;99.90;;;;;;5052199;28;20210;-77
2022/05/23 12:01:26;;;;;;;5.30;1.98;;;21.20;99.90;;;;;;5052694;28;20200;-77
2022/05/23 12:04:24;;;;;;;6.78;1.70;;;20.50;99.90;;;;;;5052368;28;20203;-77
2022/05/23 12:06:51;;;;;;;4.68;1.33;;;20.70;99.90;;;;;;4982900;28;20293;-77
2022/05/23 12:09:33;;;;;;;6.07;1.70;;;20.70;99.90;;;;;;4987908;28;20307;-77
2022/05/23 12:12:44;;;;;;;4.25;1.65;;;22.00;99.90;;;;;;4971057;28;20234;-77
2022/05/23 12:15:11;;;;;;;3.22;1.30;;;22.80;99.90;;;;;;4978567;28;20222;-77
2022/05/23 12:17:38;;;;;;;3.63;1.33;;;22.90;99.90;;;;;;4977709;28;20199;-77
2022/05/23 12:20:24;;;;;;;5.03;1.20;;;22.60;99.90;;;;;;4981478;28;20293;-77
2022/05/23 12:23:12;;;;;;;5.70;1.70;;;22.20;99.90;;;;;;4983590;28;20204;-77
2022/05/23 12:25:39;;;;;;;4.57;1.42;;;21.80;99.90;;;;;;4990764;28;20193;-77
2022/05/23 12:28:17;;;;;;;6.50;1.30;;;21.60;99.90;;;;;;4990295;28;20317;-77
2022/05/23 12:31:01;;;;;;;5.40;1.48;;;21.00;99.90;;;;;;4990816;28;20272;-76
2022/05/23 12:33:28;;;;;;;4.80;1.60;;;20.70;99.90;;;;;;4990286;28;20252;-77
2022/05/23 12:35:59;;;;;;;4.18;1.50;;;21.00;99.90;;;;;;4990386;28;20736;-77
2022/05/23 12:38:56;;;;;;;4.18;1.75;;;21.50;99.90;;;;;;4990795;28;20201;-77
2022/05/23 12:41:47;;;;;;;5.00;1.63;;;22.50;99.90;;;;;;5043369;28;20195;-77
2022/05/23 12:44:43;;;;;;;4.35;1.40;;;23.90;99.90;;;;;;5067635;28;20233;-77
2022/05/23 12:47:22;;;;;;;3.42;1.52;;;23.60;99.90;;;;;;5054902;28;20697;-77
2022/05/23 12:50:01;;;;;;;4.30;1.58;;;22.90;99.90;;;;;;5072228;28;20253;-77
2022/05/23 12:52:47;;;;;;;3.47;1.60;;;22.30;99.90;;;;;;5071956;28;20234;-77
2022/05/23 12:55:31;;;;;;;5.63;1.40;;;23.40;99.90;;;;;;5053431;28;20270;-77
2022/05/23 12:58:19;;;;;;;5.60;1.50;;;25.10;99.90;;;;;;5071900;28;20285;-77
2022/05/23 13:00:53;;;;;;;6.22;1.70;;;26.60;99.90;;;;;;5071818;28;20291;-77
2022/05/23 13:03:29;;;;;;;4.43;1.30;;;25.40;99.90;;;;;;5071603;28;20234;-77
2022/05/23 13:05:59;;;;;;;3.70;1.50;;;24.00;99.90;;;;;;5071477;28;20236;-77
2022/05/23 13:08:34;;;;;;;5.03;1.80;;;23.50;99.90;;;;;;5071892;28;20650;-77
2022/05/23 13:11:05;;;;;;;4.10;1.52;;;23.40;99.90;;;;;;5051562;28;20696;-77
2022/05/23 13:13:36;;;;;;;3.67;1.50;;;23.30;99.90;;;;;;5052075;28;20235;-77
2022/05/23 13:16:17;;;;;;;4.68;2.00;;;24.20;99.90;;;;;;5051707;28;20694;-77
2022/05/23 13:24:48;;;;;;;2.92;1.33;;;23.90;99.90;;;;;;5051318;28;20195;-76
2022/05/23 13:27:04;;;;;;;5.07;1.45;;;22.90;99.90;;;;;;5051317;28;20200;-77
2022/05/23 13:29:32;;;;;;;4.68;1.58;;;23.30;99.90;;;;;;5068507;28;20249;-76
2022/05/23 13:32:01;;;;;;;2.92;1.52;;;23.20;99.90;;;;;;5071733;28;20655;-77
2022/05/23 13:34:33;;;;;;;6.30;1.90;;;22.90;99.90;;;;;;5075018;28;20230;-77
2022/05/23 13:37:00;;;;;;;5.32;1.80;;;22.90;99.90;;;;;;5075434;28;20260;-76
2022/05/23 13:39:29;;;;;;;4.38;1.95;;;23.20;99.90;;;;;;5074819;28;20235;-77
2022/05/23 13:41:57;;;;;;;3.75;1.85;;;23.40;99.90;;;;;;5075474;28;20199;-77
2022/05/23 13:44:26;;;;;;;6.50;2.28;;;23.50;99.90;;;;;;5074984;28;20670;-77
2022/05/23 13:46:58;;;;;;;3.85;1.60;;;24.50;99.90;;;;;;5075230;28;20227;-76
2022/05/23 13:49:30;;;;;;;3.38;1.20;;;25.40;99.90;;;;;;5075189;28;20771;-77
2022/05/23 13:52:00;;;;;;;3.72;1.40;;;25.40;99.90;;;;;;5075156;28;20203;-77
2022/05/23 13:54:34;;;;;;;2.88;1.50;;;24.80;99.90;;;;;;5074819;28;20223;-77
2022/05/23 13:57:08;;;;;;;4.13;1.70;;;23.70;99.90;;;;;;5075046;28;20591;-77
2022/05/23 13:59:40;;;;;;;4.22;1.85;;;23.00;99.90;;;;;;5074829;28;20631;-77
2022/05/23 14:02:12;;;;;;;6.18;1.80;;;22.80;99.90;;;;;;5075158;28;20192;-77
2022/05/23 14:04:41;;;;;;;4.55;1.70;;;23.20;99.90;;;;;;5063557;28;20239;-77